Time;durP1;ratioP1;P1;durP2;ratioP2;P2;SDS_P1;SDS_P2;PMS_P1;PMS_P2;Temp;Humidity;BMP_temperature;BMP_pressure;BME280_temperature;BME280_humidity;BME280_pressure;Samples;Min_cycle;Max_cycle;Signal;HPM_P1;HPM_P2
2022/06/30 00:00:41;;;;;;;3.22;2.80;;;20.90;99.90;;;;;;4881174;29;20049;-72
2022/06/30 00:03:07;;;;;;;3.22;2.92;;;20.90;99.90;;;;;;4881166;29;20045;-73
2022/06/30 00:05:33;;;;;;;3.40;2.97;;;20.90;99.90;;;;;;4880936;29;20080;-73
2022/06/30 00:07:59;;;;;;;3.20;2.90;;;20.90;99.90;;;;;;4881278;29;20121;-73
2022/06/30 00:10:25;;;;;;;2.80;2.60;;;20.90;99.90;;;;;;4878900;29;20506;-73
2022/06/30 00:12:50;;;;;;;3.40;2.90;;;20.90;99.90;;;;;;4895772;29;20084;-73
2022/06/30 00:15:16;;;;;;;3.28;2.85;;;20.90;99.90;;;;;;4880819;29;20048;-73
2022/06/30 00:17:42;;;;;;;3.55;2.42;;;20.90;99.90;;;;;;4880566;29;20100;-73
2022/06/30 00:20:09;;;;;;;2.85;2.63;;;20.90;99.90;;;;;;4880636;29;20414;-73
2022/06/30 00:22:35;;;;;;;2.80;2.60;;;20.90;99.90;;;;;;4880740;29;20057;-73
2022/06/30 00:25:01;;;;;;;3.85;2.78;;;20.90;99.90;;;;;;4881124;29;20072;-73
2022/06/30 00:27:27;;;;;;;5.55;2.63;;;20.90;99.90;;;;;;4880542;29;20049;-73
2022/06/30 00:29:52;;;;;;;6.05;3.22;;;20.90;99.90;;;;;;4880840;29;20053;-72
2022/06/30 00:32:18;;;;;;;3.55;2.70;;;20.90;99.90;;;;;;4879682;29;20052;-73
2022/06/30 00:34:44;;;;;;;5.80;3.05;;;20.90;99.90;;;;;;4880476;29;20561;-73
2022/06/30 00:37:09;;;;;;;3.30;3.00;;;20.90;99.90;;;;;;4880432;29;20135;-73
2022/06/30 00:39:35;;;;;;;3.08;2.78;;;20.90;99.90;;;;;;4879736;29;20056;-73
2022/06/30 00:42:02;;;;;;;4.18;2.67;;;20.80;99.90;;;;;;4880393;29;20509;-73
2022/06/30 00:44:28;;;;;;;2.75;2.55;;;20.80;99.90;;;;;;4879476;29;20454;-73
2022/06/30 00:46:54;;;;;;;3.22;2.63;;;20.80;99.90;;;;;;4880012;29;20512;-73
2022/06/30 00:49:20;;;;;;;4.82;2.55;;;20.80;99.90;;;;;;4880192;29;20049;-73
2022/06/30 00:51:46;;;;;;;3.35;2.45;;;20.80;99.90;;;;;;4880072;29;20498;-73
2022/06/30 00:54:13;;;;;;;5.47;2.50;;;20.70;99.90;;;;;;4880111;29;20562;-73
2022/06/30 00:56:41;;;;;;;4.07;2.88;;;20.70;99.90;;;;;;4880120;29;20490;-73
2022/06/30 00:59:08;;;;;;;3.75;2.97;;;20.70;99.90;;;;;;4894796;29;20045;-73
2022/06/30 01:01:36;;;;;;;3.47;2.75;;;20.60;99.90;;;;;;4880131;29;20045;-73
2022/06/30 01:04:03;;;;;;;3.20;2.72;;;20.50;99.90;;;;;;4879924;29;20462;-73
2022/06/30 01:06:29;;;;;;;3.33;2.60;;;20.50;99.90;;;;;;4894529;29;20051;-73
2022/06/30 01:08:58;;;;;;;3.47;3.17;;;20.50;99.90;;;;;;4880558;29;20052;-73
2022/06/30 01:14:08;;;;;;;4.22;3.05;;;20.40;99.90;;;;;;4880070;29;20140;-73
2022/06/30 01:16:37;;;;;;;4.45;3.25;;;20.40;99.90;;;;;;4879892;29;20048;-73
2022/06/30 01:19:04;;;;;;;5.47;3.05;;;20.40;99.90;;;;;;4879746;29;20498;-73
2022/06/30 01:21:29;;;;;;;3.83;3.47;;;20.30;99.90;;;;;;4879603;29;20109;-73
2022/06/30 01:23:55;;;;;;;3.88;3.08;;;20.30;99.90;;;;;;4880029;29;20508;-73
2022/06/30 01:26:24;;;;;;;3.85;3.22;;;20.30;99.90;;;;;;4879724;29;20158;-72
2022/06/30 01:28:51;;;;;;;4.50;3.63;;;20.30;99.90;;;;;;4879565;29;20060;-73
2022/06/30 01:31:17;;;;;;;3.97;3.63;;;20.30;99.90;;;;;;4879448;29;20053;-73
2022/06/30 01:33:43;;;;;;;4.53;4.07;;;20.30;99.90;;;;;;4879728;29;20052;-73
2022/06/30 01:36:08;;;;;;;3.63;3.20;;;20.30;99.90;;;;;;4879732;29;20064;-73
2022/06/30 01:38:34;;;;;;;5.15;3.85;;;20.30;99.90;;;;;;4879665;29;20056;-73
2022/06/30 01:41:00;;;;;;;4.32;3.92;;;20.20;99.90;;;;;;4879567;29;20092;-73
2022/06/30 01:43:25;;;;;;;5.38;3.80;;;20.20;99.90;;;;;;4879532;29;20049;-73
2022/06/30 01:45:51;;;;;;;5.45;3.90;;;20.20;99.90;;;;;;4879448;29;20045;-73
2022/06/30 01:48:17;;;;;;;4.20;3.60;;;20.20;99.90;;;;;;4879153;29;20049;-73
2022/06/30 01:50:42;;;;;;;4.05;3.40;;;20.10;99.90;;;;;;4879663;29;20406;-73
2022/06/30 01:53:08;;;;;;;4.68;3.38;;;20.10;99.90;;;;;;4879543;29;20201;-72
2022/06/30 01:55:34;;;;;;;5.35;3.85;;;20.00;99.90;;;;;;4879379;29;20505;-73
2022/06/30 01:58:00;;;;;;;3.90;3.40;;;20.10;99.90;;;;;;4878700;29;20061;-73
2022/06/30 02:00:27;;;;;;;3.83;3.42;;;20.00;99.90;;;;;;4879118;29;20504;-72
2022/06/30 02:02:54;;;;;;;3.65;3.20;;;20.00;99.90;;;;;;4879546;29;20093;-73
2022/06/30 02:05:20;;;;;;;6.57;3.40;;;20.00;99.90;;;;;;4879536;29;20080;-73
2022/06/30 02:07:46;;;;;;;3.80;3.22;;;19.90;99.90;;;;;;4879306;29;20097;-73
2022/06/30 02:10:19;;;;;;;3.85;3.17;;;19.90;99.90;;;;;;4878407;29;20084;-73
2022/06/30 02:12:45;;;;;;;;;;;19.90;99.90;;;;;;4879598;29;20056;-73
2022/06/30 02:15:12;;;;;;;4.35;3.30;;;19.90;99.90;;;;;;4878308;29;20360;-73
2022/06/30 02:17:39;;;;;;;6.07;3.08;;;19.80;99.90;;;;;;4878154;29;20424;-73
2022/06/30 02:20:07;;;;;;;3.65;3.22;;;19.80;99.90;;;;;;4879351;29;20057;-73
2022/06/30 02:22:34;;;;;;;3.47;3.17;;;19.70;99.90;;;;;;4878010;29;20418;-73
2022/06/30 02:25:00;;;;;;;6.15;3.50;;;19.70;99.90;;;;;;4879259;29;20131;-73
2022/06/30 02:27:25;;;;;;;3.53;3.28;;;19.70;99.90;;;;;;4877803;29;20121;-73
2022/06/30 02:29:52;;;;;;;3.53;3.22;;;19.70;99.90;;;;;;4879278;29;20049;-73
2022/06/30 02:32:18;;;;;;;3.72;3.08;;;19.60;99.90;;;;;;4879208;29;20127;-73
2022/06/30 02:34:44;;;;;;;3.75;2.95;;;19.60;99.90;;;;;;4882390;29;20454;-73
2022/06/30 02:37:10;;;;;;;3.45;2.95;;;19.60;99.90;;;;;;4881595;29;20057;-73
2022/06/30 02:39:36;;;;;;;4.68;3.28;;;19.50;99.90;;;;;;4881716;29;20049;-73
2022/06/30 02:42:01;;;;;;;5.75;2.92;;;19.60;99.90;;;;;;4882415;29;20053;-73
2022/06/30 02:44:27;;;;;;;4.07;3.30;;;19.50;99.90;;;;;;4881367;29;20055;-73
2022/06/30 02:46:54;;;;;;;3.80;2.72;;;19.50;99.90;;;;;;4882254;29;20065;-73
2022/06/30 02:49:21;;;;;;;4.22;3.10;;;19.50;99.90;;;;;;4882876;29;20089;-73
2022/06/30 02:51:47;;;;;;;4.00;3.03;;;19.50;99.90;;;;;;4882481;29;20088;-74
2022/06/30 02:54:13;;;;;;;4.35;2.97;;;19.50;99.90;;;;;;4882339;29;20045;-73
2022/06/30 02:56:39;;;;;;;6.13;3.33;;;19.40;99.90;;;;;;4881005;29;20056;-73
2022/06/30 02:59:05;;;;;;;5.20;3.30;;;19.40;99.90;;;;;;4882587;29;20045;-73
2022/06/30 03:01:30;;;;;;;3.50;3.08;;;19.40;99.90;;;;;;4882521;29;20494;-73
2022/06/30 03:03:56;;;;;;;3.08;2.70;;;19.40;99.90;;;;;;4881296;29;20045;-73
2022/06/30 03:06:22;;;;;;;3.20;2.70;;;19.40;99.90;;;;;;4882165;29;20048;-73
2022/06/30 03:08:47;;;;;;;5.32;3.00;;;19.40;99.90;;;;;;4882402;29;20390;-73
2022/06/30 03:11:16;;;;;;;4.25;2.75;;;19.30;99.90;;;;;;4882009;29;20088;-73
2022/06/30 03:13:45;;;;;;;3.08;2.83;;;19.30;99.90;;;;;;4882144;29;20148;-72
2022/06/30 03:16:11;;;;;;;3.65;2.90;;;19.30;99.90;;;;;;4882382;29;20390;-73
2022/06/30 03:18:38;;;;;;;4.00;3.00;;;19.30;99.90;;;;;;4881804;29;20064;-73
2022/06/30 03:21:04;;;;;;;5.30;2.80;;;19.30;99.90;;;;;;4881927;29;20067;-73
2022/06/30 03:23:29;;;;;;;3.53;2.90;;;19.30;99.90;;;;;;4865560;29;20057;-73
2022/06/30 03:25:55;;;;;;;3.08;2.78;;;19.20;99.90;;;;;;4880650;29;20056;-73
2022/06/30 03:28:21;;;;;;;4.68;3.50;;;19.20;99.90;;;;;;4880625;29;20053;-73
2022/06/30 03:30:47;;;;;;;5.55;3.38;;;19.20;99.90;;;;;;4881687;29;20136;-73
2022/06/30 03:33:17;;;;;;;5.85;3.33;;;19.10;99.90;;;;;;4881612;29;20101;-72
2022/06/30 03:35:43;;;;;;;4.03;2.97;;;19.10;99.90;;;;;;4896055;29;20049;-73
2022/06/30 03:38:09;;;;;;;3.83;2.55;;;19.10;99.90;;;;;;4896015;29;20052;-73
2022/06/30 03:40:34;;;;;;;4.90;3.25;;;19.00;99.90;;;;;;4880467;29;20052;-73
2022/06/30 03:43:01;;;;;;;3.17;2.88;;;19.10;99.90;;;;;;4881643;29;20505;-73
2022/06/30 03:45:27;;;;;;;3.97;3.15;;;19.00;99.90;;;;;;4881824;29;20049;-73
2022/06/30 03:47:53;;;;;;;4.90;3.45;;;19.00;99.90;;;;;;4881085;29;20390;-73
2022/06/30 03:50:19;;;;;;;3.50;3.20;;;19.00;99.90;;;;;;4880526;29;20117;-72
2022/06/30 03:52:44;;;;;;;5.45;3.53;;;19.00;99.90;;;;;;4881472;29;20525;-73
2022/06/30 03:55:10;;;;;;;3.55;3.25;;;19.00;99.90;;;;;;4879944;29;20139;-73
2022/06/30 03:57:36;;;;;;;3.60;3.30;;;19.00;99.90;;;;;;4880537;29;20045;-73
2022/06/30 04:00:04;;;;;;;3.58;3.13;;;18.90;99.90;;;;;;4881364;29;20498;-73
2022/06/30 04:02:29;;;;;;;3.05;2.72;;;18.90;99.90;;;;;;4895802;29;20079;-73
2022/06/30 04:04:55;;;;;;;3.65;3.15;;;18.90;99.90;;;;;;4881301;29;20478;-73
2022/06/30 04:07:21;;;;;;;3.75;2.95;;;18.90;99.90;;;;;;4880000;29;20127;-73
2022/06/30 04:09:47;;;;;;;4.10;3.00;;;18.90;99.90;;;;;;4880887;29;20494;-71
2022/06/30 04:12:12;;;;;;;3.40;3.10;;;18.90;99.90;;;;;;4881242;29;20044;-73
2022/06/30 04:14:38;;;;;;;3.38;2.78;;;18.90;99.90;;;;;;4880507;29;20055;-73
2022/06/30 04:17:04;;;;;;;3.85;3.28;;;18.90;99.90;;;;;;4880846;29;20109;-73
2022/06/30 04:19:30;;;;;;;4.05;3.47;;;18.90;99.90;;;;;;4864699;29;20413;-70
2022/06/30 04:21:56;;;;;;;3.22;2.92;;;18.90;99.90;;;;;;4881073;29;20049;-68
2022/06/30 04:24:22;;;;;;;3.47;3.17;;;18.90;99.90;;;;;;4880747;29;20132;-69
2022/06/30 04:26:48;;;;;;;6.95;3.20;;;18.90;99.90;;;;;;4880954;29;20132;-70
2022/06/30 04:29:13;;;;;;;3.58;3.03;;;18.90;99.90;;;;;;4880845;29;20045;-69
2022/06/30 04:34:23;;;;;;;4.60;3.00;;;18.90;99.90;;;;;;4880756;29;20486;-69
2022/06/30 04:36:49;;;;;;;3.38;3.05;;;18.90;99.90;;;;;;4880527;29;20125;-69
2022/06/30 04:39:15;;;;;;;3.03;2.80;;;18.90;99.90;;;;;;4880502;29;20052;-69
2022/06/30 04:41:41;;;;;;;4.25;2.85;;;18.90;99.90;;;;;;4879507;29;20049;-69
2022/06/30 04:44:07;;;;;;;2.88;2.60;;;18.90;99.90;;;;;;4879512;29;20045;-69
2022/06/30 04:46:33;;;;;;;3.80;2.90;;;18.90;99.90;;;;;;4880710;29;20053;-69
2022/06/30 04:48:58;;;;;;;3.92;2.78;;;18.90;99.90;;;;;;4879847;29;20049;-69
2022/06/30 04:51:24;;;;;;;5.72;3.08;;;19.00;99.90;;;;;;4880260;29;20379;-69
2022/06/30 04:53:51;;;;;;;5.00;2.70;;;19.00;99.90;;;;;;4880441;29;20181;-69
2022/06/30 04:56:17;;;;;;;3.90;3.10;;;19.00;99.90;;;;;;4879682;29;20060;-69
2022/06/30 04:58:44;;;;;;;4.93;3.13;;;19.00;99.90;;;;;;4880231;29;20048;-69
2022/06/30 05:01:10;;;;;;;3.55;2.75;;;19.00;99.90;;;;;;4880543;29;20064;-69
2022/06/30 05:03:36;;;;;;;3.88;2.88;;;19.00;99.90;;;;;;4880033;29;20136;-69
2022/06/30 05:06:03;;;;;;;3.70;2.80;;;19.00;99.90;;;;;;4885212;29;20140;-69
2022/06/30 05:08:29;;;;;;;4.32;3.35;;;19.10;99.90;;;;;;4899035;29;20043;-69
2022/06/30 05:10:55;;;;;;;3.15;2.85;;;19.10;99.90;;;;;;4898709;29;20040;-69
2022/06/30 05:13:20;;;;;;;3.92;3.40;;;19.10;99.90;;;;;;4897848;29;20385;-68
2022/06/30 05:15:46;;;;;;;4.50;3.28;;;19.10;99.90;;;;;;4898776;29;20512;-69
2022/06/30 05:18:13;;;;;;;3.00;2.70;;;19.10;99.90;;;;;;4898023;29;20132;-69
2022/06/30 05:20:40;;;;;;;4.32;2.90;;;19.10;99.90;;;;;;4898312;29;20053;-69
2022/06/30 05:23:07;;;;;;;3.65;2.90;;;19.10;99.90;;;;;;4897890;29;20450;-69
2022/06/30 05:28:17;;;;;;;3.40;3.05;;;19.20;99.90;;;;;;4898380;29;20461;-68
2022/06/30 05:30:43;;;;;;;4.75;2.92;;;19.30;99.90;;;;;;4898580;29;20407;-68
2022/06/30 05:33:09;;;;;;;3.85;2.95;;;19.30;99.90;;;;;;4898111;29;20049;-69
2022/06/30 05:35:35;;;;;;;4.43;3.00;;;19.30;99.90;;;;;;4898445;29;20048;-69
2022/06/30 05:38:02;;;;;;;5.22;2.63;;;19.40;99.90;;;;;;4898634;29;20462;-69
2022/06/30 05:40:29;;;;;;;3.40;2.90;;;19.40;99.90;;;;;;4898696;29;20056;-69
2022/06/30 05:42:54;;;;;;;3.03;2.78;;;19.40;99.90;;;;;;4912818;29;20052;-69
2022/06/30 05:45:20;;;;;;;3.30;3.00;;;19.40;99.90;;;;;;4897258;29;20118;-69
2022/06/30 05:47:48;;;;;;;3.70;2.80;;;19.50;99.90;;;;;;4897424;29;20162;-69
2022/06/30 05:50:14;;;;;;;3.28;2.55;;;19.50;99.90;;;;;;4913154;29;20052;-69
2022/06/30 05:52:41;;;;;;;3.63;2.70;;;19.50;99.90;;;;;;4898303;29;20059;-69
2022/06/30 05:55:07;;;;;;;3.30;2.92;;;19.50;99.90;;;;;;4898484;29;20102;-69
2022/06/30 05:57:33;;;;;;;3.80;2.60;;;19.50;99.90;;;;;;4898280;29;20116;-69
2022/06/30 05:59:59;;;;;;;3.30;2.53;;;19.60;99.90;;;;;;4898227;29;20045;-69
2022/06/30 06:02:25;;;;;;;3.83;2.70;;;19.60;99.90;;;;;;4897027;29;20061;-68
2022/06/30 06:04:50;;;;;;;2.70;2.50;;;19.60;99.90;;;;;;4898166;29;20048;-68
2022/06/30 06:07:16;;;;;;;3.63;2.78;;;19.60;99.90;;;;;;4898303;29;20048;-69
2022/06/30 06:09:42;;;;;;;3.85;2.70;;;19.60;99.90;;;;;;4901910;29;20127;-68
2022/06/30 06:12:08;;;;;;;3.97;2.42;;;19.60;99.90;;;;;;4901825;29;20405;-68
2022/06/30 06:14:34;;;;;;;3.58;2.47;;;19.70;99.90;;;;;;4901905;29;20053;-68
2022/06/30 06:16:59;;;;;;;3.40;2.65;;;19.80;99.90;;;;;;4900034;29;20071;-69
2022/06/30 06:19:25;;;;;;;5.93;2.60;;;19.80;99.90;;;;;;4902017;29;20048;-69
2022/06/30 06:21:51;;;;;;;5.40;2.45;;;19.90;99.90;;;;;;4900848;29;20532;-68
2022/06/30 06:24:17;;;;;;;8.95;2.47;;;19.90;99.90;;;;;;4901615;29;20048;-69
2022/06/30 06:26:43;;;;;;;3.30;2.50;;;20.00;99.90;;;;;;4901612;29;20044;-69
2022/06/30 06:29:09;;;;;;;4.90;2.25;;;20.10;99.90;;;;;;4900418;29;20060;-69
2022/06/30 06:31:40;;;;;;;3.38;2.17;;;20.10;99.90;;;;;;4900390;29;20056;-68
2022/06/30 06:34:07;;;;;;;3.83;2.30;;;20.20;99.90;;;;;;4901849;29;20048;-69
2022/06/30 06:36:33;;;;;;;2.47;2.28;;;20.30;99.90;;;;;;4901805;29;20059;-69
2022/06/30 06:38:59;;;;;;;4.03;2.50;;;20.40;99.90;;;;;;4901418;29;20045;-69
2022/06/30 06:41:25;;;;;;;3.67;2.53;;;20.40;99.90;;;;;;4900426;29;20044;-69
2022/06/30 06:43:52;;;;;;;3.13;2.40;;;20.50;99.90;;;;;;4915855;29;20123;-69
2022/06/30 06:46:18;;;;;;;4.32;2.50;;;20.60;99.90;;;;;;4901817;29;20055;-68
2022/06/30 06:48:44;;;;;;;3.30;2.78;;;20.60;99.90;;;;;;4915089;29;20402;-68
2022/06/30 06:51:10;;;;;;;3.22;2.72;;;20.80;99.90;;;;;;4901192;29;20067;-69
2022/06/30 06:53:37;;;;;;;3.17;2.75;;;20.80;99.90;;;;;;4901101;29;20056;-68
2022/06/30 06:56:04;;;;;;;2.95;2.70;;;20.90;99.90;;;;;;4900937;29;20048;-69
2022/06/30 06:58:30;;;;;;;6.05;2.90;;;21.00;99.90;;;;;;4900877;29;20120;-69
2022/06/30 07:00:56;;;;;;;3.55;2.47;;;21.00;99.90;;;;;;4900773;29;20136;-70
2022/06/30 07:03:22;;;;;;;3.45;2.70;;;21.10;99.90;;;;;;4900309;29;20389;-69
2022/06/30 07:05:48;;;;;;;3.80;2.83;;;21.20;99.90;;;;;;4900108;29;20504;-68
2022/06/30 07:08:15;;;;;;;4.13;2.92;;;21.20;99.90;;;;;;4899697;29;20056;-68
2022/06/30 07:10:40;;;;;;;3.67;3.13;;;21.30;99.90;;;;;;4915300;29;20523;-68
2022/06/30 07:13:06;;;;;;;4.32;3.10;;;21.20;99.90;;;;;;4900614;29;20049;-69
2022/06/30 07:15:32;;;;;;;5.20;3.47;;;21.40;99.90;;;;;;4899626;29;20052;-68
2022/06/30 07:17:58;;;;;;;4.40;2.88;;;21.50;99.90;;;;;;4898818;29;20064;-68
2022/06/30 07:20:25;;;;;;;5.13;3.20;;;21.60;99.90;;;;;;4890270;29;20193;-71
2022/06/30 07:22:50;;;;;;;4.13;3.05;;;21.70;99.90;;;;;;4891792;29;20057;-69
2022/06/30 07:25:16;;;;;;;5.03;3.40;;;21.80;99.90;;;;;;4895696;29;20049;-68
2022/06/30 07:27:42;;;;;;;3.85;3.47;;;21.90;99.90;;;;;;4895169;29;20052;-69
2022/06/30 07:30:08;;;;;;;7.10;3.30;;;21.90;99.90;;;;;;4893191;29;20197;-69
2022/06/30 07:32:35;;;;;;;7.80;3.75;;;22.00;99.90;;;;;;4893197;29;20047;-69
2022/06/30 07:35:04;;;;;;;3.92;3.22;;;22.10;99.90;;;;;;4895720;29;20127;-69
2022/06/30 07:37:30;;;;;;;4.20;3.55;;;22.10;99.90;;;;;;4910469;29;20063;-70
2022/06/30 07:39:55;;;;;;;4.35;3.25;;;22.20;99.90;;;;;;4909816;29;20052;-69
2022/06/30 07:42:21;;;;;;;5.78;3.53;;;22.30;99.90;;;;;;4894443;29;20057;-70
2022/06/30 07:44:47;;;;;;;4.30;3.90;;;22.40;99.90;;;;;;4889070;29;20048;-69
2022/06/30 07:47:13;;;;;;;4.78;4.30;;;22.50;99.90;;;;;;4894308;29;20048;-69
2022/06/30 07:49:40;;;;;;;4.35;3.92;;;22.60;99.90;;;;;;4892479;29;20040;-69
2022/06/30 07:52:06;;;;;;;5.90;4.68;;;22.70;99.90;;;;;;4896796;29;20143;-70
2022/06/30 07:54:32;;;;;;;8.02;4.18;;;22.70;99.90;;;;;;4891535;29;20184;-70
2022/06/30 07:56:58;;;;;;;5.32;3.92;;;22.70;99.90;;;;;;4910194;29;20110;-70
2022/06/30 07:59:24;;;;;;;6.07;4.28;;;22.70;99.90;;;;;;4894192;29;20075;-69
2022/06/30 08:01:50;;;;;;;4.60;3.85;;;22.70;99.90;;;;;;4890054;29;20076;-69
2022/06/30 08:04:17;;;;;;;6.75;4.40;;;22.70;99.90;;;;;;4890592;29;20128;-69
2022/06/30 08:06:43;;;;;;;5.47;4.18;;;22.80;99.90;;;;;;4888967;29;20280;-70
2022/06/30 08:09:09;;;;;;;6.15;4.25;;;22.90;99.90;;;;;;4891044;29;20049;-70
2022/06/30 08:11:35;;;;;;;6.65;4.43;;;22.90;99.90;;;;;;4888080;29;20127;-69
2022/06/30 08:14:00;;;;;;;4.30;3.90;;;23.00;99.90;;;;;;4893520;29;20056;-70
2022/06/30 08:16:26;;;;;;;5.03;4.28;;;23.00;99.90;;;;;;4904954;29;20493;-70
2022/06/30 08:18:52;;;;;;;6.13;4.88;;;23.10;99.90;;;;;;4890403;29;20440;-71
2022/06/30 08:21:18;;;;;;;5.47;4.57;;;23.10;99.90;;;;;;4886892;29;20056;-68
2022/06/30 08:23:44;;;;;;;5.47;4.97;;;23.20;99.90;;;;;;4892473;29;20099;-69
2022/06/30 08:26:09;;;;;;;5.60;4.82;;;23.20;99.90;;;;;;4889433;29;20087;-69
2022/06/30 08:28:35;;;;;;;6.78;5.78;;;23.20;99.90;;;;;;4888370;29;20403;-69
2022/06/30 08:31:02;;;;;;;6.85;4.68;;;23.30;99.90;;;;;;4886351;29;20048;-68
2022/06/30 08:33:27;;;;;;;5.57;5.07;;;23.40;99.90;;;;;;4891930;29;20056;-70
2022/06/30 08:35:53;;;;;;;4.88;4.38;;;23.40;99.90;;;;;;4903575;29;20052;-69
2022/06/30 08:38:21;;;;;;;5.38;4.80;;;23.40;99.90;;;;;;4891832;29;20200;-69
2022/06/30 08:43:33;;;;;;;6.03;5.30;;;23.60;99.90;;;;;;4889031;29;20064;-73
2022/06/30 08:46:01;;;;;;;6.63;5.07;;;23.60;99.90;;;;;;4886233;29;20056;-69
2022/06/30 08:48:27;;;;;;;5.40;4.38;;;23.70;99.90;;;;;;4890030;29;20096;-70
2022/06/30 08:51:01;;;;;;;6.30;5.05;;;23.80;99.90;;;;;;4887277;29;20053;-69
2022/06/30 08:53:31;;;;;;;6.88;5.22;;;23.80;99.90;;;;;;4890049;29;20064;-69
2022/06/30 08:55:57;;;;;;;5.75;4.55;;;23.90;99.90;;;;;;4887186;29;20469;-68
2022/06/30 08:58:24;;;;;;;7.03;4.80;;;23.90;99.90;;;;;;4886260;29;20084;-68
2022/06/30 09:00:52;;;;;;;7.10;5.40;;;24.00;99.90;;;;;;4888175;29;20057;-69
2022/06/30 09:03:20;;;;;;;5.95;5.03;;;24.00;99.90;;;;;;4886564;29;20052;-68
2022/06/30 09:05:46;;;;;;;5.72;4.72;;;24.10;99.90;;;;;;4889715;29;20108;-68
2022/06/30 09:08:13;;;;;;;5.18;4.53;;;24.10;99.90;;;;;;4889055;29;20060;-68
2022/06/30 09:10:53;;;;;;;5.78;4.93;;;24.20;99.90;;;;;;4889659;29;20051;-69
2022/06/30 09:13:19;;;;;;;4.82;4.43;;;24.20;99.90;;;;;;4888080;29;20780;-70
2022/06/30 09:15:51;;;;;;;5.13;4.63;;;24.30;99.90;;;;;;4890350;29;20043;-72
2022/06/30 09:18:29;;;;;;;6.82;4.72;;;24.40;99.90;;;;;;4886491;29;20049;-74
2022/06/30 09:20:56;;;;;;;5.18;4.32;;;24.40;99.90;;;;;;4885544;29;20052;-75
2022/06/30 09:23:28;;;;;;;5.93;5.32;;;24.50;99.90;;;;;;4874467;29;20454;-73
2022/06/30 09:25:59;;;;;;;7.68;6.03;;;24.50;99.90;;;;;;4888319;29;20497;-73
2022/06/30 09:28:46;;;;;;;7.80;5.40;;;24.60;99.90;;;;;;4885437;29;20052;-73
2022/06/30 09:31:15;;;;;;;7.38;5.05;;;24.60;99.90;;;;;;4889680;29;20099;-73
2022/06/30 09:33:44;;;;;;;5.15;4.65;;;24.70;99.90;;;;;;4888863;29;20446;-73
2022/06/30 09:36:28;;;;;;;6.68;5.18;;;24.70;99.90;;;;;;4889758;29;20052;-73
2022/06/30 09:39:04;;;;;;;7.50;6.00;;;24.80;99.90;;;;;;4890617;29;20057;-73
2022/06/30 09:41:35;;;;;;;6.03;5.40;;;24.80;99.90;;;;;;4888096;29;20128;-72
2022/06/30 09:44:06;;;;;;;8.13;5.43;;;24.90;99.90;;;;;;4889171;29;20556;-73
2022/06/30 09:46:32;;;;;;;6.47;5.88;;;24.90;99.90;;;;;;4888522;29;20449;-73
2022/06/30 09:48:57;;;;;;;7.03;5.97;;;25.00;99.90;;;;;;4887445;29;20104;-73
2022/06/30 09:51:23;;;;;;;7.50;5.45;;;25.00;99.90;;;;;;4890823;29;20048;-75
2022/06/30 09:54:08;;;;;;;7.07;5.28;;;25.00;99.90;;;;;;4870241;29;20052;-72
2022/06/30 09:56:35;;;;;;;7.28;6.22;;;25.10;99.90;;;;;;4887673;29;20056;-72
2022/06/30 09:59:00;;;;;;;7.18;5.70;;;25.20;99.90;;;;;;4890154;29;20044;-72
2022/06/30 10:01:26;;;;;;;6.70;5.50;;;25.20;99.90;;;;;;4888329;29;20060;-73
2022/06/30 10:03:59;;;;;;;6.78;6.07;;;25.20;99.90;;;;;;4886342;29;20075;-73
2022/06/30 10:06:26;;;;;;;6.72;5.75;;;25.30;99.90;;;;;;4893938;29;20465;-73
2022/06/30 10:08:55;;;;;;;6.60;5.60;;;25.30;99.90;;;;;;4904862;29;20041;-73
2022/06/30 10:11:21;;;;;;;6.03;5.18;;;25.40;99.90;;;;;;4886493;29;20538;-73
2022/06/30 10:13:48;;;;;;;7.07;5.50;;;25.40;99.90;;;;;;4888975;29;20453;-73
2022/06/30 10:16:16;;;;;;;6.85;6.15;;;25.50;99.90;;;;;;4890146;29;20458;-73
2022/06/30 10:18:43;;;;;;;6.90;6.18;;;25.50;99.90;;;;;;4888133;29;20068;-73
2022/06/30 10:21:08;;;;;;;6.10;5.50;;;25.60;99.90;;;;;;4888585;29;20056;-72
2022/06/30 10:23:35;;;;;;;6.75;6.05;;;25.60;99.90;;;;;;4882478;29;20406;-71
2022/06/30 10:26:06;;;;;;;7.07;6.18;;;25.60;99.90;;;;;;4888021;29;20048;-70
2022/06/30 10:28:32;;;;;;;5.80;5.30;;;25.60;99.90;;;;;;4888189;29;20339;-71
2022/06/30 10:31:00;;;;;;;7.10;6.07;;;25.60;99.90;;;;;;4887185;29;20158;-72
2022/06/30 10:33:58;;;;;;;6.97;6.28;;;25.60;99.90;;;;;;4888685;29;20128;-72
2022/06/30 10:36:32;;;;;;;6.95;6.25;;;25.60;99.90;;;;;;4866741;29;20052;-71
2022/06/30 10:39:04;;;;;;;6.18;5.68;;;25.60;99.90;;;;;;4889890;29;20490;-70
2022/06/30 10:41:30;;;;;;;;;;;25.60;99.90;;;;;;4892194;29;20107;-71
2022/06/30 10:44:04;;;;;;;6.18;5.57;;;25.60;99.90;;;;;;4891017;29;20304;-71
2022/06/30 10:46:36;;;;;;;7.63;6.22;;;25.60;99.90;;;;;;4887773;29;20441;-72
2022/06/30 10:49:12;;;;;;;5.90;5.30;;;25.60;99.90;;;;;;4887252;29;20047;-71
2022/06/30 10:51:39;;;;;;;6.75;5.75;;;25.70;99.90;;;;;;4902928;29;20052;-71
2022/06/30 10:54:06;;;;;;;6.63;5.93;;;25.80;99.90;;;;;;4890234;29;20045;-73
2022/06/30 10:56:51;;;;;;;5.95;5.45;;;25.80;99.90;;;;;;4891482;29;20048;-70
2022/06/30 10:59:29;;;;;;;6.13;5.35;;;25.80;99.90;;;;;;4890335;29;20048;-71
2022/06/30 11:02:10;;;;;;;6.28;5.63;;;25.80;99.90;;;;;;4876203;29;20045;-71
2022/06/30 11:04:40;;;;;;;6.50;5.85;;;25.80;99.90;;;;;;4890190;29;20040;-71
2022/06/30 11:07:14;;;;;;;7.45;5.35;;;25.80;99.90;;;;;;4894692;29;20525;-71
2022/06/30 11:09:49;;;;;;;5.40;4.95;;;25.80;99.90;;;;;;4891676;29;20489;-72
2022/06/30 11:12:37;;;;;;;5.20;4.70;;;25.90;99.90;;;;;;4890714;29;20078;-71
2022/06/30 11:15:03;;;;;;;5.35;4.85;;;26.00;99.90;;;;;;4894767;29;20044;-71
2022/06/30 11:17:30;;;;;;;5.50;4.93;;;26.10;99.90;;;;;;4891003;29;20072;-71
2022/06/30 11:20:10;;;;;;;5.95;5.45;;;26.10;99.90;;;;;;4892328;29;20144;-71
2022/06/30 11:22:36;;;;;;;6.30;5.80;;;26.10;99.90;;;;;;4887593;29;20064;-72
2022/06/30 11:25:05;;;;;;;6.03;4.97;;;26.20;99.90;;;;;;4893292;29;20053;-72
2022/06/30 11:27:36;;;;;;;7.18;5.32;;;26.20;99.90;;;;;;4909627;29;20107;-71
2022/06/30 11:30:12;;;;;;;6.32;5.40;;;26.30;99.90;;;;;;4892428;29;20090;-72
2022/06/30 11:32:40;;;;;;;5.70;5.20;;;26.30;99.90;;;;;;4878716;29;20107;-73
2022/06/30 11:35:07;;;;;;;5.38;4.97;;;26.30;99.90;;;;;;4893129;29;20063;-72
2022/06/30 11:37:34;;;;;;;6.68;5.20;;;26.20;99.90;;;;;;4892691;29;20067;-71
2022/06/30 11:40:15;;;;;;;4.82;4.43;;;26.30;99.90;;;;;;4887175;29;20052;-72
2022/06/30 11:42:41;;;;;;;5.35;4.85;;;26.30;99.90;;;;;;4889903;29;20057;-72
2022/06/30 11:45:23;;;;;;;5.30;4.80;;;26.40;99.90;;;;;;4889636;29;20100;-73
2022/06/30 11:47:54;;;;;;;4.47;4.07;;;26.50;99.90;;;;;;4890938;29;20462;-72
2022/06/30 11:50:26;;;;;;;5.25;4.75;;;26.60;99.90;;;;;;4890403;29;20396;-72
2022/06/30 11:52:52;;;;;;;;;;;26.60;99.90;;;;;;4893164;29;20059;-72
2022/06/30 11:55:19;;;;;;;5.43;4.82;;;26.70;99.90;;;;;;4891356;29;20712;-72
2022/06/30 11:57:48;;;;;;;5.70;5.00;;;26.70;99.90;;;;;;4888921;29;20128;-72
2022/06/30 12:00:20;;;;;;;6.47;4.70;;;26.70;99.90;;;;;;4891439;29;20111;-72
2022/06/30 12:02:46;;;;;;;6.45;5.28;;;26.70;99.90;;;;;;4904179;29;20515;-72
2022/06/30 12:05:15;;;;;;;5.53;4.90;;;26.80;99.90;;;;;;4889062;29;20656;-72
2022/06/30 12:07:42;;;;;;;5.25;4.50;;;26.80;99.90;;;;;;4889332;29;20077;-72
2022/06/30 12:10:10;;;;;;;4.60;4.20;;;26.90;99.90;;;;;;4893129;29;20047;-72
2022/06/30 12:12:36;;;;;;;5.32;4.82;;;26.90;99.90;;;;;;4889615;29;20517;-72
2022/06/30 12:15:07;;;;;;;5.07;4.57;;;26.90;99.90;;;;;;4889679;29;20076;-72
2022/06/30 12:17:35;;;;;;;5.85;4.63;;;27.00;99.90;;;;;;4890736;29;20060;-72
2022/06/30 12:20:03;;;;;;;6.07;4.32;;;27.00;99.90;;;;;;4888474;29;20048;-72
2022/06/30 12:22:29;;;;;;;4.65;4.30;;;27.00;99.90;;;;;;4889086;29;20067;-72
2022/06/30 12:24:55;;;;;;;4.82;4.38;;;27.10;99.90;;;;;;4885600;29;20045;-72
2022/06/30 12:27:32;;;;;;;4.88;4.38;;;27.10;99.90;;;;;;4890292;29;20089;-72
2022/06/30 12:30:18;;;;;;;4.65;3.72;;;27.10;99.90;;;;;;4888819;29;20050;-72
2022/06/30 12:32:56;;;;;;;4.43;4.00;;;27.00;99.90;;;;;;4887412;29;20051;-71
2022/06/30 12:35:24;;;;;;;4.20;3.90;;;26.90;99.90;;;;;;4888252;29;20053;-71
2022/06/30 12:37:51;;;;;;;6.45;4.40;;;26.80;99.90;;;;;;4890245;29;20121;-70
2022/06/30 12:40:21;;;;;;;4.75;4.35;;;26.70;99.90;;;;;;4888828;29;20049;-72
2022/06/30 12:42:49;;;;;;;6.75;4.47;;;26.60;99.90;;;;;;4889400;29;20045;-71
2022/06/30 12:45:36;;;;;;;5.07;4.60;;;26.50;99.90;;;;;;4889655;29;20080;-72
2022/06/30 12:48:04;;;;;;;5.75;5.13;;;26.50;99.90;;;;;;4887504;29;20405;-72
2022/06/30 12:50:35;;;;;;;6.20;5.60;;;26.40;99.90;;;;;;4889143;29;20123;-72
2022/06/30 12:53:23;;;;;;;6.35;5.75;;;26.50;99.90;;;;;;4887727;29;20185;-72
2022/06/30 12:56:06;;;;;;;6.40;5.80;;;26.70;99.90;;;;;;4889799;29;20044;-72
2022/06/30 12:58:48;;;;;;;6.32;5.82;;;26.90;99.90;;;;;;4890165;29;20045;-71
2022/06/30 13:01:15;;;;;;;;;;;27.10;99.90;;;;;;4890826;29;20805;-71